Time;durP1;ratioP1;P1;durP2;ratioP2;P2;SDS_P1;SDS_P2;PMS_P1;PMS_P2;Temp;Humidity;BMP_temperature;BMP_pressure;BME280_temperature;BME280_humidity;BME280_pressure;Samples;Min_cycle;Max_cycle;Signal;HPM_P1;HPM_P2
2023/07/09 00:01:16;;;;;;;10.50;7.70;;;22.30;95.40;;;;;;5094312;28;20119;-40
2023/07/09 00:03:43;;;;;;;9.70;7.50;;;22.30;95.60;;;;;;5093951;28;20043;-40
2023/07/09 00:06:09;;;;;;;8.85;7.18;;;22.30;95.50;;;;;;5093842;28;20044;-41
2023/07/09 00:08:35;;;;;;;8.23;7.43;;;22.30;95.80;;;;;;5093604;28;20039;-42
2023/07/09 00:11:00;;;;;;;8.45;7.05;;;22.30;95.70;;;;;;5093804;28;20402;-42
2023/07/09 00:13:27;;;;;;;9.75;7.75;;;22.30;95.70;;;;;;5093405;28;20040;-40
2023/07/09 00:15:58;;;;;;;10.75;7.43;;;22.30;95.80;;;;;;5092534;28;20547;-40
2023/07/09 00:18:24;;;;;;;12.27;7.20;;;22.20;95.70;;;;;;5092197;28;20048;-40
2023/07/09 00:20:49;;;;;;;9.80;7.47;;;22.20;95.90;;;;;;5093501;28;20047;-40
2023/07/09 00:23:16;;;;;;;8.93;7.53;;;22.10;96.10;;;;;;5093271;28;20379;-40
2023/07/09 00:25:44;;;;;;;8.10;7.30;;;22.10;96.20;;;;;;5093496;28;20044;-40
2023/07/09 00:28:27;;;;;;;9.10;7.50;;;22.10;96.40;;;;;;5093469;28;20036;-40
2023/07/09 00:30:53;;;;;;;8.93;7.45;;;22.00;96.50;;;;;;5093466;28;20079;-42
2023/07/09 00:33:19;;;;;;;11.77;8.50;;;;;;;;;;5093543;28;20449;-40
2023/07/09 00:35:46;;;;;;;8.18;6.93;;;22.00;96.50;;;;;;5093059;28;20486;-41
2023/07/09 00:38:24;;;;;;;9.35;7.68;;;22.00;96.80;;;;;;5093296;28;20055;-40
2023/07/09 00:40:59;;;;;;;;;;;21.90;96.90;;;;;;5092521;28;20047;-39
2023/07/09 00:43:25;;;;;;;8.27;7.47;;;21.90;96.90;;;;;;5092517;28;20381;-41
2023/07/09 00:46:30;;;;;;;7.93;7.10;;;21.90;97.40;;;;;;5093061;28;20405;-41
2023/07/09 00:49:05;;;;;;;10.55;7.32;;;21.90;97.20;;;;;;5090674;28;20456;-40
2023/07/09 00:51:33;;;;;;;10.48;7.53;;;21.80;97.50;;;;;;5090893;28;20087;-40
2023/07/09 00:54:07;;;;;;;10.63;7.72;;;21.80;97.50;;;;;;5090575;28;20043;-39
2023/07/09 00:56:40;;;;;;;8.65;7.80;;;21.80;97.20;;;;;;5090493;28;20245;-40
2023/07/09 00:59:11;;;;;;;8.18;7.38;;;21.70;97.70;;;;;;5090825;28;20599;-39
2023/07/09 01:01:40;;;;;;;8.70;6.85;;;21.70;97.50;;;;;;5090617;28;20105;-39
2023/07/09 01:04:07;;;;;;;7.65;6.93;;;21.70;97.70;;;;;;5073642;28;20052;-39
2023/07/09 01:06:39;;;;;;;8.57;7.03;;;21.70;97.90;;;;;;5090513;28;20518;-40
2023/07/09 01:09:07;;;;;;;11.13;6.68;;;21.70;97.50;;;;;;5090419;28;20426;-40
2023/07/09 01:11:33;;;;;;;;;;;21.70;97.80;;;;;;5074234;28;20056;-40
2023/07/09 01:14:02;;;;;;;9.18;7.07;;;21.60;97.90;;;;;;5090627;28;19927;-40
2023/07/09 01:16:31;;;;;;;9.32;6.80;;;21.60;98.30;;;;;;5073762;28;20052;-40
2023/07/09 01:18:57;;;;;;;9.88;7.30;;;21.50;98.00;;;;;;5074893;28;20060;-40
2023/07/09 01:21:23;;;;;;;12.05;7.53;;;21.50;98.60;;;;;;5092911;28;20044;-41
2023/07/09 01:23:50;;;;;;;8.05;7.25;;;21.50;98.10;;;;;;5092691;28;20448;-39
2023/07/09 01:26:24;;;;;;;8.40;6.43;;;21.50;98.30;;;;;;5092586;28;20071;-42
2023/07/09 01:28:51;;;;;;;8.55;7.07;;;21.40;98.30;;;;;;5092561;28;20040;-40
2023/07/09 01:31:17;;;;;;;11.18;7.32;;;21.40;98.30;;;;;;5091470;28;20131;-41
2023/07/09 01:33:44;;;;;;;9.27;7.20;;;21.40;98.60;;;;;;5092355;28;20123;-39
2023/07/09 01:36:14;;;;;;;7.70;6.95;;;21.30;99.30;;;;;;5092345;28;20693;-42
2023/07/09 01:38:41;;;;;;;9.13;6.50;;;21.30;99.10;;;;;;5092827;28;20047;-42
2023/07/09 01:41:13;;;;;;;7.75;7.05;;;21.30;99.90;;;;;;5092791;28;20032;-40
2023/07/09 01:43:43;;;;;;;8.50;7.43;;;21.30;99.90;;;;;;5092527;28;20044;-40
2023/07/09 01:46:12;;;;;;;8.27;7.38;;;21.40;99.90;;;;;;5092723;28;20051;-40
2023/07/09 01:48:40;;;;;;;8.40;7.50;;;21.20;99.90;;;;;;5092804;28;20397;-41
2023/07/09 01:51:09;;;;;;;8.30;7.50;;;21.10;99.90;;;;;;5092698;28;20482;-40
2023/07/09 01:53:37;;;;;;;10.07;7.30;;;21.10;99.70;;;;;;5091245;28;20046;-43
2023/07/09 01:56:03;;;;;;;;;;;21.10;99.90;;;;;;5096346;28;20044;-39
2023/07/09 01:58:31;;;;;;;8.00;7.20;;;21.00;99.90;;;;;;5096232;28;19920;-41
2023/07/09 02:00:58;;;;;;;7.80;7.10;;;21.00;99.90;;;;;;5096170;28;20505;-41
2023/07/09 02:03:27;;;;;;;9.98;7.43;;;21.00;99.90;;;;;;5095928;28;20062;-40
2023/07/09 02:05:53;;;;;;;8.45;7.57;;;20.90;99.90;;;;;;5096203;28;20421;-41
2023/07/09 02:08:19;;;;;;;8.77;7.93;;;20.90;99.90;;;;;;5095997;28;20040;-40
2023/07/09 02:10:48;;;;;;;10.25;7.55;;;20.80;99.90;;;;;;5096126;28;20621;-39
2023/07/09 02:13:14;;;;;;;10.48;7.28;;;20.80;99.90;;;;;;5095946;28;20177;-41
2023/07/09 02:15:43;;;;;;;8.52;7.63;;;20.70;99.90;;;;;;5095891;28;20107;-40
2023/07/09 02:18:10;;;;;;;10.55;7.57;;;20.70;99.90;;;;;;5095881;28;20127;-40
2023/07/09 02:20:35;;;;;;;8.80;7.85;;;20.70;99.90;;;;;;5095979;28;20049;-40
2023/07/09 02:23:02;;;;;;;8.57;7.68;;;20.60;99.90;;;;;;5095562;28;20048;-39
2023/07/09 02:25:28;;;;;;;8.73;7.43;;;20.60;99.90;;;;;;5094504;28;20090;-40
2023/07/09 02:27:53;;;;;;;9.82;8.05;;;20.50;99.90;;;;;;5095440;28;20094;-40
2023/07/09 02:30:19;;;;;;;11.75;8.32;;;20.50;99.90;;;;;;5095356;28;20070;-39
2023/07/09 02:32:45;;;;;;;10.75;8.10;;;20.50;99.90;;;;;;5095799;28;20047;-39
2023/07/09 02:35:10;;;;;;;8.52;7.20;;;20.50;99.90;;;;;;5095371;28;20490;-40
2023/07/09 02:37:36;;;;;;;8.60;7.72;;;20.50;99.90;;;;;;5095537;28;20043;-39
2023/07/09 02:40:04;;;;;;;10.57;7.45;;;20.40;99.90;;;;;;5095582;28;20043;-40
2023/07/09 02:42:30;;;;;;;8.73;7.80;;;20.40;99.90;;;;;;5095557;28;20086;-39
2023/07/09 02:44:55;;;;;;;9.88;7.15;;;20.40;99.90;;;;;;5095649;28;20054;-39
2023/07/09 02:47:21;;;;;;;8.95;7.65;;;20.40;99.90;;;;;;5095316;28;20127;-41
2023/07/09 02:49:47;;;;;;;10.60;8.20;;;20.40;99.90;;;;;;5095433;28;20046;-40
2023/07/09 02:52:13;;;;;;;9.43;7.72;;;20.30;99.90;;;;;;5095215;28;20040;-39
2023/07/09 02:54:38;;;;;;;9.82;7.80;;;20.30;99.90;;;;;;5095230;28;20048;-41
2023/07/09 02:57:05;;;;;;;11.50;7.95;;;20.30;99.90;;;;;;5093777;28;20478;-39
2023/07/09 02:59:30;;;;;;;9.90;7.78;;;20.30;99.90;;;;;;5095320;28;20068;-40
2023/07/09 03:01:57;;;;;;;9.00;7.68;;;20.20;99.90;;;;;;5095240;28;20204;-41
2023/07/09 03:04:23;;;;;;;9.02;8.10;;;20.20;99.90;;;;;;5093864;28;20044;-42
2023/07/09 03:06:48;;;;;;;9.90;8.55;;;20.20;99.90;;;;;;5094802;28;20088;-41
2023/07/09 03:09:14;;;;;;;10.30;7.40;;;20.10;99.90;;;;;;5094730;28;20093;-39
2023/07/09 03:11:40;;;;;;;10.55;8.52;;;20.20;99.90;;;;;;5095058;28;20044;-40
2023/07/09 03:14:05;;;;;;;10.52;8.13;;;20.10;99.90;;;;;;5094680;28;20097;-41
2023/07/09 03:16:33;;;;;;;10.90;7.85;;;20.10;99.90;;;;;;5094781;28;20041;-40
2023/07/09 03:19:00;;;;;;;8.15;7.35;;;20.10;99.90;;;;;;5094809;28;20040;-40
2023/07/09 03:21:27;;;;;;;9.88;8.50;;;20.00;99.90;;;;;;5094865;28;20040;-41
2023/07/09 03:23:54;;;;;;;9.48;8.23;;;20.00;99.90;;;;;;5094618;28;20050;-41
2023/07/09 03:26:19;;;;;;;9.95;8.65;;;20.00;99.90;;;;;;5094719;28;20094;-39
2023/07/09 03:28:45;;;;;;;9.82;7.60;;;20.00;99.90;;;;;;5094547;28;20036;-39
2023/07/09 03:31:11;;;;;;;10.30;8.23;;;20.00;99.90;;;;;;5094619;28;20050;-39
2023/07/09 03:33:37;;;;;;;9.25;8.30;;;20.00;99.90;;;;;;5094522;28;20036;-40
2023/07/09 03:36:04;;;;;;;9.65;8.43;;;20.00;99.90;;;;;;5094122;28;20347;-41
2023/07/09 03:38:30;;;;;;;9.38;8.40;;;19.90;99.90;;;;;;5094675;28;20123;-41
2023/07/09 03:40:56;;;;;;;9.00;7.95;;;20.00;99.90;;;;;;5094292;28;20064;-39
2023/07/09 03:43:23;;;;;;;11.43;8.15;;;20.00;99.90;;;;;;5094106;28;20074;-39
2023/07/09 03:45:49;;;;;;;9.73;7.87;;;20.00;99.90;;;;;;5094383;28;20406;-40
2023/07/09 03:48:17;;;;;;;9.40;8.03;;;20.00;99.90;;;;;;5094183;28;20051;-39
2023/07/09 03:50:45;;;;;;;10.02;8.30;;;20.00;99.90;;;;;;5094064;28;20317;-39
2023/07/09 03:53:11;;;;;;;12.07;8.38;;;20.10;99.90;;;;;;5094009;28;20521;-40
2023/07/09 03:55:37;;;;;;;12.02;8.63;;;20.10;99.90;;;;;;5093711;28;20051;-42
2023/07/09 03:58:03;;;;;;;8.95;8.07;;;20.10;99.90;;;;;;5093789;28;20555;-42
2023/07/09 04:00:30;;;;;;;10.65;8.23;;;20.10;99.90;;;;;;5093831;28;20104;-41
2023/07/09 04:02:56;;;;;;;8.35;7.45;;;20.20;99.90;;;;;;5094032;28;20044;-41
2023/07/09 04:05:26;;;;;;;9.57;7.60;;;20.30;99.90;;;;;;5094097;28;20044;-41
2023/07/09 04:07:52;;;;;;;11.07;8.02;;;20.30;99.90;;;;;;5093728;28;20371;-40
2023/07/09 04:10:18;;;;;;;9.32;8.20;;;20.40;99.90;;;;;;5092516;28;20101;-41
2023/07/09 04:12:44;;;;;;;11.32;8.75;;;20.40;99.90;;;;;;5093710;28;20044;-42
2023/07/09 04:15:12;;;;;;;9.85;7.53;;;;;;;;;;5093753;28;20043;-39
2023/07/09 04:17:39;;;;;;;10.40;8.07;;;20.70;99.90;;;;;;5092643;28;20504;-40
2023/07/09 04:20:08;;;;;;;10.20;7.85;;;20.70;99.90;;;;;;5094143;28;20040;-42
2023/07/09 04:22:35;;;;;;;13.40;7.57;;;20.80;99.90;;;;;;5093703;28;20040;-39
2023/07/09 04:25:03;;;;;;;12.35;8.07;;;21.00;99.90;;;;;;5093401;28;20069;-40
2023/07/09 04:27:29;;;;;;;11.38;7.63;;;;;;;;;;5093594;28;20040;-40
2023/07/09 04:29:55;;;;;;;12.20;7.80;;;;;;;;;;5093425;28;20040;-40
2023/07/09 04:32:21;;;;;;;8.70;7.90;;;21.50;99.90;;;;;;5093199;28;20529;-41
2023/07/09 04:34:47;;;;;;;8.93;8.02;;;21.50;99.90;;;;;;5093838;28;20071;-40
2023/07/09 04:37:13;;;;;;;8.93;8.00;;;21.60;99.90;;;;;;5093280;28;20555;-40
2023/07/09 04:39:40;;;;;;;10.52;7.55;;;;;;;;;;5093522;28;20044;-42
2023/07/09 04:42:10;;;;;;;10.97;7.97;;;22.30;99.90;;;;;;5093386;28;20044;-39
2023/07/09 04:44:36;;;;;;;10.45;7.32;;;22.60;99.90;;;;;;5093251;28;20278;-40
2023/07/09 04:47:01;;;;;;;8.23;7.40;;;23.20;99.90;;;;;;5092943;28;20055;-41
2023/07/09 04:49:27;;;;;;;9.57;8.00;;;23.40;99.90;;;;;;5093240;28;20036;-42
2023/07/09 04:51:53;;;;;;;7.93;7.13;;;24.00;99.90;;;;;;5093075;28;20046;-40
2023/07/09 04:54:18;;;;;;;10.90;8.00;;;24.10;99.90;;;;;;5092726;28;20036;-41
2023/07/09 04:56:44;;;;;;;11.93;7.95;;;24.50;99.90;;;;;;5091597;28;20048;-40
2023/07/09 04:59:11;;;;;;;8.40;7.40;;;24.80;99.90;;;;;;5093020;28;20132;-41
2023/07/09 05:01:37;;;;;;;10.70;7.43;;;25.20;99.90;;;;;;5093152;28;20036;-40
2023/07/09 05:04:03;;;;;;;8.55;7.65;;;25.20;99.90;;;;;;5093208;28;20405;-40
2023/07/09 05:06:29;;;;;;;10.57;7.82;;;25.40;99.90;;;;;;5092916;28;20044;-41
2023/07/09 05:08:54;;;;;;;9.10;8.15;;;25.50;99.90;;;;;;5092685;28;20058;-41
2023/07/09 05:11:20;;;;;;;11.57;8.63;;;25.60;99.90;;;;;;5092900;28;20509;-41
2023/07/09 05:13:46;;;;;;;9.25;7.63;;;26.00;99.90;;;;;;5092723;28;20494;-40
2023/07/09 05:16:11;;;;;;;10.18;7.88;;;26.40;99.80;;;;;;5092878;28;20063;-40
2023/07/09 05:18:37;;;;;;;14.27;8.32;;;27.10;99.20;;;;;;5092955;28;20205;-40
2023/07/09 05:21:03;;;;;;;12.27;8.13;;;27.40;99.20;;;;;;5092746;28;20032;-41
2023/07/09 05:23:29;;;;;;;10.65;8.43;;;27.90;98.70;;;;;;5091565;28;20055;-40
2023/07/09 05:26:00;;;;;;;10.48;8.05;;;28.30;97.90;;;;;;5092751;28;20044;-40
2023/07/09 05:28:26;;;;;;;10.85;8.02;;;28.60;97.40;;;;;;5093826;28;20043;-41
2023/07/09 05:30:52;;;;;;;10.90;8.07;;;28.50;96.90;;;;;;5097105;28;20051;-41
2023/07/09 05:33:20;;;;;;;12.05;8.45;;;28.00;96.40;;;;;;5096726;28;20041;-43
2023/07/09 05:35:46;;;;;;;9.63;7.97;;;;;;;;;;5095418;28;20494;-41
2023/07/09 05:38:12;;;;;;;11.25;8.50;;;27.80;96.60;;;;;;5096812;28;20062;-41
2023/07/09 05:40:38;;;;;;;9.03;7.93;;;27.60;97.20;;;;;;5096793;28;20046;-41
2023/07/09 05:43:04;;;;;;;11.43;8.48;;;27.40;97.30;;;;;;5097011;28;20349;-42
2023/07/09 05:45:30;;;;;;;12.05;7.55;;;27.50;97.10;;;;;;5096893;28;20093;-40
2023/07/09 05:47:58;;;;;;;10.07;7.77;;;27.60;97.30;;;;;;5096529;28;20097;-42
2023/07/09 05:50:24;;;;;;;10.90;7.47;;;27.60;97.50;;;;;;5096599;28;20353;-40
2023/07/09 05:52:49;;;;;;;9.90;7.72;;;27.30;97.60;;;;;;5096414;28;20094;-41
2023/07/09 05:55:15;;;;;;;8.30;7.40;;;27.10;97.70;;;;;;5096106;28;20074;-41
2023/07/09 05:57:41;;;;;;;14.27;7.82;;;26.80;97.90;;;;;;5096373;28;20132;-40
2023/07/09 06:00:08;;;;;;;10.20;7.65;;;26.90;98.20;;;;;;5096621;28;20127;-43
2023/07/09 06:02:34;;;;;;;9.95;7.07;;;26.70;98.50;;;;;;5096333;28;20044;-41
2023/07/09 06:05:00;;;;;;;11.30;7.82;;;27.00;98.30;;;;;;5096338;28;20085;-41
2023/07/09 06:07:26;;;;;;;11.95;7.25;;;27.20;98.40;;;;;;5096288;28;20048;-40
2023/07/09 06:09:52;;;;;;;9.98;7.78;;;27.40;98.60;;;;;;5096240;28;20051;-41
2023/07/09 06:12:19;;;;;;;12.30;7.93;;;27.90;98.30;;;;;;5096174;28;20040;-40
2023/07/09 06:14:46;;;;;;;9.07;6.85;;;28.00;98.10;;;;;;5096316;28;20378;-41
2023/07/09 06:17:12;;;;;;;7.47;6.78;;;;;;;;;;5095654;28;20482;-40
2023/07/09 06:19:39;;;;;;;9.93;7.10;;;28.60;98.30;;;;;;5095988;28;20040;-40
2023/07/09 06:22:05;;;;;;;11.38;7.68;;;;;;;;;;5094829;28;20493;-43
2023/07/09 06:24:31;;;;;;;9.53;6.70;;;29.40;97.50;;;;;;5095752;28;20398;-41
2023/07/09 06:26:56;;;;;;;9.48;7.03;;;29.60;97.50;;;;;;5095937;28;20059;-40
2023/07/09 06:29:22;;;;;;;8.27;7.20;;;30.00;96.90;;;;;;5095855;28;20032;-43
2023/07/09 06:31:48;;;;;;;9.85;7.00;;;30.50;96.70;;;;;;5094570;28;20406;-41
2023/07/09 06:34:13;;;;;;;9.77;7.00;;;31.00;96.30;;;;;;5095870;28;20063;-42
2023/07/09 06:36:39;;;;;;;9.30;7.13;;;31.30;96.70;;;;;;5095762;28;20127;-42
2023/07/09 06:39:05;;;;;;;10.35;6.88;;;31.80;96.00;;;;;;5095591;28;20078;-41
2023/07/09 06:41:32;;;;;;;11.35;7.88;;;32.00;95.10;;;;;;5076542;28;20093;-42
2023/07/09 06:43:58;;;;;;;;;;;31.90;94.80;;;;;;5096382;28;20444;-41
2023/07/09 06:46:23;;;;;;;8.13;7.30;;;32.20;95.00;;;;;;5095640;28;19923;-41
2023/07/09 06:48:49;;;;;;;8.80;7.95;;;32.20;94.50;;;;;;5095288;28;20040;-42
2023/07/09 06:51:14;;;;;;;14.05;8.40;;;32.50;94.10;;;;;;5095251;28;20374;-41
2023/07/09 06:53:42;;;;;;;11.63;7.97;;;32.50;94.00;;;;;;5095124;28;20043;-41
2023/07/09 06:56:09;;;;;;;8.57;7.63;;;;;;;;;;5094892;28;20044;-44
2023/07/09 06:58:36;;;;;;;9.00;7.40;;;32.90;93.60;;;;;;5093872;28;20051;-41
2023/07/09 07:01:04;;;;;;;9.10;7.07;;;33.20;93.80;;;;;;5094158;28;20071;-40
2023/07/09 07:03:31;;;;;;;11.13;7.80;;;33.10;94.30;;;;;;5094993;28;20039;-41
2023/07/09 07:05:57;;;;;;;17.10;7.45;;;33.20;93.40;;;;;;5095261;28;20036;-42
2023/07/09 07:08:25;;;;;;;10.17;7.47;;;33.50;93.20;;;;;;5094789;28;20040;-42
2023/07/09 07:11:01;;;;;;;10.48;7.35;;;;;;;;;;5094750;28;20505;-41
2023/07/09 07:13:27;;;;;;;;;;;33.60;92.50;;;;;;5095509;28;20051;-41
2023/07/09 07:15:53;;;;;;;11.57;7.18;;;33.30;92.90;;;;;;5094632;28;20378;-41
2023/07/09 07:18:19;;;;;;;10.40;6.90;;;33.70;93.00;;;;;;5093784;28;20048;-41
2023/07/09 07:20:44;;;;;;;7.63;6.60;;;33.90;93.00;;;;;;5093612;28;20040;-43
2023/07/09 07:23:10;;;;;;;11.73;7.27;;;34.20;92.50;;;;;;5094884;28;20047;-40
2023/07/09 07:25:36;;;;;;;10.02;7.53;;;34.00;92.60;;;;;;5094736;28;20433;-41
2023/07/09 07:28:02;;;;;;;9.77;6.67;;;33.80;92.80;;;;;;5095041;28;20105;-41
2023/07/09 07:30:27;;;;;;;8.77;6.97;;;33.80;92.20;;;;;;5094798;28;20040;-42
2023/07/09 07:32:53;;;;;;;8.73;7.00;;;34.00;91.90;;;;;;5094470;28;20043;-41
2023/07/09 07:35:19;;;;;;;7.60;6.33;;;34.00;92.30;;;;;;5094539;28;20040;-45
2023/07/09 07:37:45;;;;;;;9.15;6.72;;;34.00;91.80;;;;;;5094452;28;20044;-41
2023/07/09 07:40:11;;;;;;;7.87;6.93;;;34.10;91.80;;;;;;5093251;28;20072;-41
2023/07/09 07:42:37;;;;;;;7.68;6.70;;;33.60;91.60;;;;;;5094328;28;20177;-41
2023/07/09 07:45:04;;;;;;;7.43;6.23;;;33.40;92.10;;;;;;5094295;28;20115;-43
2023/07/09 07:47:30;;;;;;;19.10;8.95;;;33.60;92.10;;;;;;5094034;28;20044;-40
2023/07/09 07:49:56;;;;;;;9.60;7.63;;;33.50;92.30;;;;;;5094312;28;20040;-40
2023/07/09 07:52:23;;;;;;;10.30;6.78;;;33.40;92.30;;;;;;5094135;28;20044;-40
2023/07/09 07:54:49;;;;;;;7.75;6.68;;;32.90;92.00;;;;;;5093810;28;20151;-41
2023/07/09 07:57:15;;;;;;;9.60;6.57;;;32.60;92.10;;;;;;5094019;28;20127;-42
2023/07/09 07:59:41;;;;;;;9.63;6.50;;;32.60;92.50;;;;;;5093813;28;20494;-41
2023/07/09 08:02:11;;;;;;;7.27;6.00;;;32.20;92.70;;;;;;5094002;28;20042;-42
2023/07/09 08:04:39;;;;;;;8.75;6.75;;;31.90;93.20;;;;;;5093092;28;20397;-44
2023/07/09 08:07:04;;;;;;;8.45;6.22;;;32.10;93.50;;;;;;5093979;28;20039;-41
2023/07/09 08:09:30;;;;;;;11.17;6.87;;;32.00;93.30;;;;;;5092545;28;20044;-42
2023/07/09 08:11:56;;;;;;;8.80;6.40;;;32.10;93.50;;;;;;5094087;28;20044;-41
2023/07/09 08:14:22;;;;;;;7.93;6.40;;;32.00;93.60;;;;;;5094238;28;20044;-42
2023/07/09 08:16:48;;;;;;;9.98;6.30;;;31.80;94.00;;;;;;5093756;28;20040;-42
2023/07/09 08:19:14;;;;;;;7.40;6.13;;;32.10;93.50;;;;;;5093757;28;20530;-43
2023/07/09 08:21:39;;;;;;;8.70;6.43;;;32.10;93.50;;;;;;5093521;28;20063;-39
2023/07/09 08:24:06;;;;;;;7.40;6.10;;;32.30;93.90;;;;;;5093799;28;20453;-42
2023/07/09 08:26:32;;;;;;;8.02;6.10;;;32.40;93.70;;;;;;5093750;28;20119;-39
2023/07/09 08:28:58;;;;;;;8.43;5.90;;;32.60;93.70;;;;;;5093702;28;20051;-40
2023/07/09 08:31:24;;;;;;;6.47;5.53;;;32.70;92.80;;;;;;5093621;28;20040;-41
2023/07/09 08:33:50;;;;;;;9.05;6.53;;;32.70;92.80;;;;;;5093236;28;20410;-42
2023/07/09 08:36:16;;;;;;;9.53;5.83;;;32.40;92.00;;;;;;5093374;28;20039;-40
2023/07/09 08:38:41;;;;;;;9.70;6.43;;;32.50;92.90;;;;;;5093696;28;20498;-42
2023/07/09 08:41:32;;;;;;;10.97;7.07;;;32.50;93.00;;;;;;5093676;28;20036;-41
2023/07/09 08:44:27;;;;;;;7.18;5.95;;;32.50;92.90;;;;;;5093481;28;20036;-42
2023/07/09 08:47:11;;;;;;;9.05;6.28;;;32.50;92.90;;;;;;5092358;28;20108;-41
2023/07/09 08:49:57;;;;;;;9.70;6.22;;;32.30;93.30;;;;;;5093245;28;20059;-40
2023/07/09 08:52:23;;;;;;;;;;;32.60;93.00;;;;;;5093669;28;20043;-40
2023/07/09 08:54:50;;;;;;;8.10;6.03;;;32.90;93.40;;;;;;5091704;28;19943;-40
2023/07/09 08:57:19;;;;;;;10.32;6.18;;;32.70;92.50;;;;;;5092662;28;20486;-40
2023/07/09 08:59:46;;;;;;;9.38;5.97;;;32.70;92.50;;;;;;5092824;28;20066;-41
2023/07/09 09:02:16;;;;;;;;;;;32.60;92.50;;;;;;5093127;28;20119;-41
2023/07/09 09:04:42;;;;;;;9.50;6.05;;;32.50;93.10;;;;;;5092878;28;19920;-40
2023/07/09 09:07:34;;;;;;;;;;;32.60;93.10;;;;;;5093119;28;20558;-42
2023/07/09 09:10:03;;;;;;;10.20;6.15;;;32.60;92.70;;;;;;5089193;28;19920;-41
2023/07/09 09:12:40;;;;;;;7.43;5.82;;;33.00;92.50;;;;;;5092778;28;20052;-41
2023/07/09 09:15:18;;;;;;;9.05;5.80;;;32.90;93.10;;;;;;5092992;28;20048;-41
2023/07/09 09:17:44;;;;;;;11.38;6.00;;;32.70;92.20;;;;;;5092833;28;20044;-40
2023/07/09 09:20:17;;;;;;;6.10;5.50;;;32.90;92.90;;;;;;5092862;28;20046;-41
2023/07/09 09:23:14;;;;;;;8.80;5.63;;;33.10;92.50;;;;;;5092890;28;20127;-43
2023/07/09 09:25:44;;;;;;;9.95;5.57;;;33.20;92.90;;;;;;5093042;28;20498;-40
2023/07/09 09:28:10;;;;;;;7.70;5.32;;;33.10;93.00;;;;;;5093017;28;20090;-40
2023/07/09 09:30:35;;;;;;;6.23;5.60;;;32.90;92.90;;;;;;5092774;28;20571;-41
2023/07/09 09:33:11;;;;;;;9.80;6.33;;;33.00;92.70;;;;;;5091429;28;20424;-41
2023/07/09 09:35:43;;;;;;;7.57;5.60;;;33.20;92.60;;;;;;5092992;28;20044;-41
2023/07/09 09:38:21;;;;;;;8.13;5.45;;;33.30;92.70;;;;;;5092649;28;20490;-44
2023/07/09 09:40:47;;;;;;;9.25;5.50;;;33.20;92.50;;;;;;5092822;28;20127;-41
2023/07/09 09:43:17;;;;;;;8.40;5.18;;;33.70;92.50;;;;;;5092638;28;20439;-41
2023/07/09 09:45:45;;;;;;;6.32;5.05;;;33.90;92.90;;;;;;5092590;28;20040;-44
2023/07/09 09:48:20;;;;;;;5.72;5.05;;;34.00;92.30;;;;;;5092634;28;20379;-44
2023/07/09 09:50:47;;;;;;;5.55;4.97;;;34.00;91.80;;;;;;5092959;28;20144;-43
2023/07/09 09:53:20;;;;;;;6.85;4.75;;;33.90;91.80;;;;;;5092451;28;20037;-40
2023/07/09 09:55:48;;;;;;;6.68;4.68;;;33.90;91.60;;;;;;5092322;28;20123;-41
2023/07/09 09:58:16;;;;;;;7.75;4.93;;;34.10;91.80;;;;;;5092348;28;20052;-40
2023/07/09 10:00:51;;;;;;;6.03;4.78;;;34.10;91.80;;;;;;5092675;28;20052;-40
2023/07/09 10:03:18;;;;;;;7.90;5.40;;;34.30;92.40;;;;;;5092604;28;20048;-40
2023/07/09 10:05:53;;;;;;;6.40;4.82;;;34.30;91.50;;;;;;5092563;28;20044;-42
2023/07/09 10:08:49;;;;;;;7.05;4.85;;;34.10;91.30;;;;;;5092194;28;20127;-41
2023/07/09 10:11:38;;;;;;;6.30;4.90;;;34.40;92.10;;;;;;5092498;28;20048;-41
2023/07/09 10:14:45;;;;;;;8.68;4.72;;;34.30;90.80;;;;;;5092393;28;20051;-40
2023/07/09 10:17:17;;;;;;;7.45;4.90;;;34.50;91.40;;;;;;5095013;28;20048;-42
2023/07/09 10:20:03;;;;;;;9.88;5.35;;;34.70;91.20;;;;;;5096232;28;20112;-41
2023/07/09 10:22:40;;;;;;;6.57;4.72;;;34.90;91.90;;;;;;5094382;28;20048;-40
2023/07/09 10:25:14;;;;;;;8.93;4.93;;;35.00;90.30;;;;;;5094623;28;20493;-41
2023/07/09 10:28:20;;;;;;;5.32;4.65;;;35.20;91.10;;;;;;5095665;28;20044;-40
2023/07/09 10:31:06;;;;;;;6.20;4.90;;;35.00;90.30;;;;;;5095690;28;20040;-42
2023/07/09 10:33:34;;;;;;;;;;;35.00;91.20;;;;;;5095077;28;20056;-42
2023/07/09 10:36:12;;;;;;;4.90;4.50;;;35.10;91.30;;;;;;5095594;28;19974;-41
2023/07/09 10:38:48;;;;;;;5.38;4.50;;;35.10;90.50;;;;;;5095726;28;20085;-42
2023/07/09 10:41:14;;;;;;;9.13;5.32;;;35.20;91.50;;;;;;5095739;28;20402;-41
2023/07/09 10:43:43;;;;;;;;;;;35.20;90.30;;;;;;5096011;28;20036;-41
2023/07/09 10:46:15;;;;;;;6.72;4.70;;;35.00;90.50;;;;;;5095517;28;19981;-41
2023/07/09 10:48:45;;;;;;;6.35;4.90;;;35.40;90.80;;;;;;5095629;28;20048;-42
2023/07/09 10:51:44;;;;;;;6.85;5.03;;;35.00;90.30;;;;;;5095321;28;20397;-41
2023/07/09 10:54:33;;;;;;;5.75;5.03;;;35.00;90.70;;;;;;5095424;28;20039;-41
2023/07/09 10:57:24;;;;;;;7.47;5.13;;;35.00;90.30;;;;;;5095301;28;20044;-42
2023/07/09 10:59:51;;;;;;;8.48;5.15;;;35.20;90.40;;;;;;5095269;28;20040;-43
2023/07/09 11:02:30;;;;;;;7.70;4.90;;;35.30;90.50;;;;;;5095323;28;20040;-43
2023/07/09 11:05:07;;;;;;;7.55;4.50;;;35.50;90.10;;;;;;5095257;28;20109;-41
2023/07/09 11:07:35;;;;;;;6.10;4.65;;;35.50;90.30;;;;;;5095062;28;20032;-41
2023/07/09 11:10:06;;;;;;;7.18;5.03;;;35.10;89.80;;;;;;5094958;28;20040;-43
2023/07/09 11:13:04;;;;;;;5.43;4.90;;;35.30;90.10;;;;;;5094836;28;20040;-41
2023/07/09 11:15:36;;;;;;;7.05;5.05;;;35.40;90.00;;;;;;5094070;28;20048;-42
2023/07/09 11:18:05;;;;;;;7.60;5.00;;;35.40;89.70;;;;;;5094712;28;20478;-41
2023/07/09 11:20:41;;;;;;;7.72;4.90;;;35.20;89.70;;;;;;5095486;28;20048;-41
2023/07/09 11:23:22;;;;;;;6.57;4.50;;;35.40;90.60;;;;;;5095041;28;20051;-42
2023/07/09 11:26:01;;;;;;;6.75;4.47;;;35.30;89.50;;;;;;5094874;28;20040;-45
2023/07/09 11:28:34;;;;;;;4.90;3.60;;;35.40;89.40;;;;;;5094704;28;20046;-44
2023/07/09 11:31:07;;;;;;;5.90;4.05;;;35.30;87.20;;;;;;5093156;28;20044;-43
2023/07/09 11:33:33;;;;;;;6.82;4.22;;;35.50;88.00;;;;;;5094513;28;20063;-43
2023/07/09 11:36:12;;;;;;;;;;;35.40;87.40;;;;;;5095015;28;20040;-40
2023/07/09 11:38:48;;;;;;;8.68;4.40;;;35.50;87.90;;;;;;5094661;28;19971;-44
2023/07/09 11:41:26;;;;;;;;;;;35.50;88.30;;;;;;5094936;28;20544;-41
2023/07/09 11:43:51;;;;;;;6.85;4.30;;;35.40;88.50;;;;;;5094455;28;19920;-41
2023/07/09 11:46:21;;;;;;;5.97;4.10;;;35.60;88.60;;;;;;5094339;28;20048;-43
2023/07/09 11:48:49;;;;;;;6.30;4.35;;;35.60;89.30;;;;;;5094601;28;20043;-42
2023/07/09 11:51:17;;;;;;;8.55;4.88;;;35.80;88.40;;;;;;5094368;28;20040;-40
2023/07/09 11:53:55;;;;;;;6.10;4.95;;;35.60;87.60;;;;;;5094113;28;20044;-42
2023/07/09 11:56:24;;;;;;;5.22;4.72;;;35.80;88.70;;;;;;5092681;28;20048;-42
2023/07/09 11:58:58;;;;;;;5.63;4.90;;;35.90;89.00;;;;;;5075767;28;20051;-40
2023/07/09 12:01:48;;;;;;;5.78;4.95;;;36.00;88.10;;;;;;5094332;28;20075;-40
2023/07/09 12:04:17;;;;;;;5.22;4.43;;;36.00;88.00;;;;;;5094154;28;20036;-41
2023/07/09 12:06:44;;;;;;;4.63;4.15;;;36.20;87.40;;;;;;5092798;28;20051;-42
2023/07/09 12:09:18;;;;;;;5.72;4.55;;;36.20;87.50;;;;;;5093547;28;20044;-42
2023/07/09 12:11:49;;;;;;;6.50;4.03;;;35.80;85.80;;;;;;5093719;28;20050;-41
2023/07/09 12:14:17;;;;;;;7.95;4.15;;;35.60;85.50;;;;;;5092730;28;20180;-42
2023/07/09 12:16:46;;;;;;;6.15;4.20;;;35.40;85.50;;;;;;5093633;28;20048;-41
2023/07/09 12:19:13;;;;;;;6.97;4.28;;;35.20;85.70;;;;;;5093921;28;20056;-41
2023/07/09 12:21:44;;;;;;;5.32;4.30;;;35.40;87.10;;;;;;5093868;28;20080;-40
2023/07/09 12:24:27;;;;;;;7.85;4.28;;;35.40;87.20;;;;;;5093377;28;20044;-42
2023/07/09 12:26:53;;;;;;;9.88;4.75;;;35.50;85.40;;;;;;5093766;28;20043;-41
2023/07/09 12:29:19;;;;;;;4.63;4.00;;;35.50;85.40;;;;;;5093566;28;20478;-41
2023/07/09 12:31:45;;;;;;;4.75;4.25;;;35.60;86.50;;;;;;5093493;28;20048;-40
2023/07/09 12:34:14;;;;;;;6.43;3.83;;;35.70;86.50;;;;;;5093411;28;20051;-42
2023/07/09 12:36:45;;;;;;;5.13;4.32;;;35.70;85.80;;;;;;5093021;28;20406;-40
2023/07/09 12:39:12;;;;;;;5.45;4.30;;;35.70;86.50;;;;;;5092479;28;20490;-40
2023/07/09 12:41:40;;;;;;;5.50;4.43;;;35.50;85.70;;;;;;5093340;28;20079;-40
2023/07/09 12:44:15;;;;;;;5.95;4.70;;;35.50;86.50;;;;;;5092385;28;20402;-41
2023/07/09 12:46:42;;;;;;;6.15;4.10;;;35.30;86.10;;;;;;5092356;28;20040;-41
2023/07/09 12:49:07;;;;;;;5.95;4.32;;;35.70;86.70;;;;;;5092989;28;20111;-41
2023/07/09 12:51:36;;;;;;;7.90;4.30;;;35.80;86.80;;;;;;5093304;28;20075;-42
2023/07/09 12:54:17;;;;;;;7.15;4.53;;;35.80;84.60;;;;;;5093043;28;20065;-42
2023/07/09 12:56:44;;;;;;;6.03;4.28;;;35.80;86.00;;;;;;5092130;28;20079;-42
2023/07/09 12:59:26;;;;;;;6.38;4.07;;;35.70;85.70;;;;;;5092773;28;20052;-42
2023/07/09 13:02:19;;;;;;;4.70;4.00;;;35.20;85.40;;;;;;5092746;28;20515;-44